Sulphur Espoir — 3FXA2 — position and weather

sailwx.info

Track history (hours):
 
Tides and Currents Weather Stations Pressure Air Temp Water Temp Dewpoint Dewpoint Depression Visibility Wind Speed Wind Dir Waves Ship Positions

Sulphur Espoir

Last reported at 2018-Jun-20 15:39 UTC. Time now 2018-Jun-20 16:53 UTC.
Position N 35°06' E 129°05'.

Length 100 m; draft 4.2 m.

Type: Ship (hazmat cat C). MMSI: 373734000.

Date/timePositionNaut miles runAvg speedWind from/ knotsBaromVisibWave heightAir tempDewpointWater temp
2018-Jun-20 15:39N 35°06' E 129°05'0 0.0
2018-Jun-20 02:51N 35°06' E 129°05'0 1.1
2018-Jun-20 02:30N 35°06' E 129°05'41611.7
2018-Jun-18 14:56N 31°00' E 122°25'5 9.3
2018-Jun-18 14:24N 31°01' E 122°19'4 9.7
2018-Jun-18 14:01N 31°02' E 122°15'5 9.2
2018-Jun-18 13:30N 31°03' E 122°10'812.4
2018-Jun-18 12:52N 31°05' E 122°01'514.4
2018-Jun-18 12:30N 31°08' E 121°55'815.2
2018-Jun-18 12:00N 31°12' E 121°49'  
2018-Jun-16 05:19N 32°03' E 120°25'85 3.7
2018-Jun-15 06:16N 31°14' E 121°47'412.4
2018-Jun-15 05:58N 31°12' E 121°50'612.2
2018-Jun-15 05:30N 31°08' E 121°55'5 9.8
2018-Jun-15 05:00N 31°05' E 122°00'611.1
2018-Jun-15 04:29N 31°04' E 122°07'610.1
2018-Jun-15 03:55N 31°03' E 122°13'410.5
2018-Jun-15 03:30N 31°03' E 122°18'1112.4
2018-Jun-15 02:37N 31°01' E 122°31'113.2
2018-Jun-15 02:30N 31°00' E 122°32'7 1.5
2018-Jun-14 21:56N 31°01' E 122°40'0 0.0
2018-Jun-14 12:35N 31°01' E 122°40'0 0.1
2018-Jun-14 12:26N 31°01' E 122°40'0 0.0
2018-Jun-14 11:56N 31°01' E 122°40'0 0.0
2018-Jun-13 20:47N 31°01' E 122°40'0 0.0
2018-Jun-13 20:19N 31°01' E 122°40'0 0.0
2018-Jun-13 19:55N 31°01' E 122°40'0 0.0
2018-Jun-13 19:28N 31°01' E 122°40'  
2018-Jun-11 03:12N 33°50' E 134°52'512.1
2018-Jun-11 02:48N 33°54' E 134°53'412.2
2018-Jun-11 02:29N 33°58' E 134°54'612.2
2018-Jun-11 02:00N 34°04' E 134°55'612.2
2018-Jun-11 01:30N 34°10' E 134°57'713.5
2018-Jun-11 01:01N 34°17' E 134°58'5 9.8
2018-Jun-11 00:30N 34°21' E 134°57'0 0.2
2018-Jun-11 00:00N 34°21' E 134°57'0 0.0
2018-Jun-10 23:30N 34°21' E 134°57'0 0.0
2018-Jun-10 23:00N 34°21' E 134°57'0 0.0
2018-Jun-10 22:30N 34°21' E 134°57'0 0.1
2018-Jun-10 22:00N 34°21' E 134°57'0 0.1
2018-Jun-10 21:30N 34°21' E 134°57'0 0.0
2018-Jun-10 21:00N 34°21' E 134°57'0 0.1
2018-Jun-10 20:30N 34°21' E 134°57'0 0.1
2018-Jun-10 20:00N 34°21' E 134°57'0 0.1
2018-Jun-10 19:30N 34°21' E 134°57'0 0.0
2018-Jun-10 19:00N 34°21' E 134°57'0 0.1
2018-Jun-10 18:30N 34°21' E 134°57'0 0.0
2018-Jun-10 18:00N 34°21' E 134°57'0 0.0
2018-Jun-10 17:30N 34°21' E 134°57'0 0.1
2018-Jun-10 17:00N 34°21' E 134°57'0 0.0
2018-Jun-10 16:30N 34°21' E 134°57'2 3.5
2018-Jun-10 16:01N 34°20' E 134°58'  
Track history (hours):
 
Tides and Currents Weather Stations Pressure Air Temp Water Temp Dewpoint Dewpoint Depression Visibility Wind Speed Wind Dir Waves Ship Positions

Sulphur Espoir

Last reported at 2018-Jun-20 15:39 UTC. Time now 2018-Jun-20 16:53 UTC.
Position N 35°06' E 129°05'.

Length 100 m; draft 4.2 m.

Type: Ship (hazmat cat C). MMSI: 373734000.

Date/timePositionNaut miles runAvg speedWind from/ knotsBaromVisibWave heightAir tempDewpointWater temp
2018-Jun-20 15:39N 35°06' E 129°05'0 0.0
2018-Jun-20 02:51N 35°06' E 129°05'0 1.1
2018-Jun-20 02:30N 35°06' E 129°05'41611.7
2018-Jun-18 14:56N 31°00' E 122°25'5 9.3
2018-Jun-18 14:24N 31°01' E 122°19'4 9.7
2018-Jun-18 14:01N 31°02' E 122°15'5 9.2
2018-Jun-18 13:30N 31°03' E 122°10'812.4
2018-Jun-18 12:52N 31°05' E 122°01'514.4
2018-Jun-18 12:30N 31°08' E 121°55'815.2
2018-Jun-18 12:00N 31°12' E 121°49'  
2018-Jun-16 05:19N 32°03' E 120°25'85 3.7
2018-Jun-15 06:16N 31°14' E 121°47'412.4
2018-Jun-15 05:58N 31°12' E 121°50'612.2
2018-Jun-15 05:30N 31°08' E 121°55'5 9.8
2018-Jun-15 05:00N 31°05' E 122°00'611.1
2018-Jun-15 04:29N 31°04' E 122°07'610.1
2018-Jun-15 03:55N 31°03' E 122°13'410.5
2018-Jun-15 03:30N 31°03' E 122°18'1112.4
2018-Jun-15 02:37N 31°01' E 122°31'113.2
2018-Jun-15 02:30N 31°00' E 122°32'7 1.5
2018-Jun-14 21:56N 31°01' E 122°40'0 0.0
2018-Jun-14 12:35N 31°01' E 122°40'0 0.1
2018-Jun-14 12:26N 31°01' E 122°40'0 0.0
2018-Jun-14 11:56N 31°01' E 122°40'0 0.0
2018-Jun-13 20:47N 31°01' E 122°40'0 0.0
2018-Jun-13 20:19N 31°01' E 122°40'0 0.0
2018-Jun-13 19:55N 31°01' E 122°40'0 0.0
2018-Jun-13 19:28N 31°01' E 122°40'  
2018-Jun-11 03:12N 33°50' E 134°52'512.1
2018-Jun-11 02:48N 33°54' E 134°53'412.2
2018-Jun-11 02:29N 33°58' E 134°54'612.2
2018-Jun-11 02:00N 34°04' E 134°55'612.2
2018-Jun-11 01:30N 34°10' E 134°57'713.5
2018-Jun-11 01:01N 34°17' E 134°58'5 9.8
2018-Jun-11 00:30N 34°21' E 134°57'0 0.2
2018-Jun-11 00:00N 34°21' E 134°57'0 0.0
2018-Jun-10 23:30N 34°21' E 134°57'0 0.0
2018-Jun-10 23:00N 34°21' E 134°57'0 0.0
2018-Jun-10 22:30N 34°21' E 134°57'0 0.1
2018-Jun-10 22:00N 34°21' E 134°57'0 0.1
2018-Jun-10 21:30N 34°21' E 134°57'0 0.0
2018-Jun-10 21:00N 34°21' E 134°57'0 0.1
2018-Jun-10 20:30N 34°21' E 134°57'0 0.1
2018-Jun-10 20:00N 34°21' E 134°57'0 0.1
2018-Jun-10 19:30N 34°21' E 134°57'0 0.0
2018-Jun-10 19:00N 34°21' E 134°57'0 0.1
2018-Jun-10 18:30N 34°21' E 134°57'0 0.0
2018-Jun-10 18:00N 34°21' E 134°57'0 0.0
2018-Jun-10 17:30N 34°21' E 134°57'0 0.1
2018-Jun-10 17:00N 34°21' E 134°57'0 0.0
2018-Jun-10 16:30N 34°21' E 134°57'2 3.5
2018-Jun-10 16:01N 34°20' E 134°58'  

Dump ship's entire track history